sensor_id;sensor_type;location;lat;lon;timestamp;pressure;altitude;pressure_sealevel;temperature
33267;BMP180;19638;49.080;11.896;2023-11-21T00:03:47;95702.00;;;8.00
33267;BMP180;19638;49.080;11.896;2023-11-21T00:07:51;95699.00;;;8.00
33267;BMP180;19638;49.080;11.896;2023-11-21T00:11:54;95695.00;;;8.00
33267;BMP180;19638;49.080;11.896;2023-11-21T00:15:58;95701.00;;;8.00
33267;BMP180;19638;49.080;11.896;2023-11-21T00:20:01;95715.00;;;8.00
33267;BMP180;19638;49.080;11.896;2023-11-21T00:24:08;95715.00;;;7.90
33267;BMP180;19638;49.080;11.896;2023-11-21T00:28:11;95716.00;;;7.90
33267;BMP180;19638;49.080;11.896;2023-11-21T00:32:15;95715.00;;;7.90
33267;BMP180;19638;49.080;11.896;2023-11-21T00:36:18;95723.00;;;8.00
33267;BMP180;19638;49.080;11.896;2023-11-21T00:40:21;95723.00;;;8.00
33267;BMP180;19638;49.080;11.896;2023-11-21T00:44:24;95720.00;;;7.90
33267;BMP180;19638;49.080;11.896;2023-11-21T00:48:28;95733.00;;;7.90
33267;BMP180;19638;49.080;11.896;2023-11-21T00:52:31;95731.00;;;8.00
33267;BMP180;19638;49.080;11.896;2023-11-21T00:56:34;95730.00;;;8.00
33267;BMP180;19638;49.080;11.896;2023-11-21T01:00:37;95730.00;;;8.00
33267;BMP180;19638;49.080;11.896;2023-11-21T01:04:43;95727.00;;;8.00
33267;BMP180;19638;49.080;11.896;2023-11-21T01:08:46;95726.00;;;8.10
33267;BMP180;19638;49.080;11.896;2023-11-21T01:12:49;95722.00;;;8.10
33267;BMP180;19638;49.080;11.896;2023-11-21T01:16:52;95722.00;;;8.10
33267;BMP180;19638;49.080;11.896;2023-11-21T01:20:56;95715.00;;;8.10
33267;BMP180;19638;49.080;11.896;2023-11-21T01:24:59;95718.00;;;8.00
33267;BMP180;19638;49.080;11.896;2023-11-21T01:29:02;95716.00;;;8.00
33267;BMP180;19638;49.080;11.896;2023-11-21T01:33:05;95710.00;;;8.00
33267;BMP180;19638;49.080;11.896;2023-11-21T01:37:09;95718.00;;;7.90
33267;BMP180;19638;49.080;11.896;2023-11-21T01:41:13;95717.00;;;7.90
33267;BMP180;19638;49.080;11.896;2023-11-21T01:45:17;95716.00;;;7.80
33267;BMP180;19638;49.080;11.896;2023-11-21T01:49:20;95709.00;;;7.80
33267;BMP180;19638;49.080;11.896;2023-11-21T01:53:25;95709.00;;;7.80
33267;BMP180;19638;49.080;11.896;2023-11-21T01:57:29;95715.00;;;7.70
33267;BMP180;19638;49.080;11.896;2023-11-21T02:01:33;95715.00;;;7.70
33267;BMP180;19638;49.080;11.896;2023-11-21T02:05:36;95718.00;;;7.70
33267;BMP180;19638;49.080;11.896;2023-11-21T02:09:40;95703.00;;;7.60
33267;BMP180;19638;49.080;11.896;2023-11-21T02:13:44;95701.00;;;7.50
33267;BMP180;19638;49.080;11.896;2023-11-21T02:17:47;95700.00;;;7.50
33267;BMP180;19638;49.080;11.896;2023-11-21T02:21:54;95703.00;;;7.50
33267;BMP180;19638;49.080;11.896;2023-11-21T02:25:59;95701.00;;;7.50
33267;BMP180;19638;49.080;11.896;2023-11-21T02:30:07;95700.00;;;7.40
33267;BMP180;19638;49.080;11.896;2023-11-21T02:34:14;95703.00;;;7.40
33267;BMP180;19638;49.080;11.896;2023-11-21T02:38:17;95700.00;;;7.40
33267;BMP180;19638;49.080;11.896;2023-11-21T02:42:21;95696.00;;;7.50
33267;BMP180;19638;49.080;11.896;2023-11-21T02:46:24;95691.00;;;7.50
33267;BMP180;19638;49.080;11.896;2023-11-21T02:50:27;95687.00;;;7.50
33267;BMP180;19638;49.080;11.896;2023-11-21T02:54:31;95678.00;;;7.60
33267;BMP180;19638;49.080;11.896;2023-11-21T02:58:36;95684.00;;;7.60
33267;BMP180;19638;49.080;11.896;2023-11-21T03:02:39;95674.00;;;7.60
33267;BMP180;19638;49.080;11.896;2023-11-21T03:06:42;95669.00;;;7.70
33267;BMP180;19638;49.080;11.896;2023-11-21T03:10:45;95663.00;;;7.60
33267;BMP180;19638;49.080;11.896;2023-11-21T03:14:50;95661.00;;;7.60
33267;BMP180;19638;49.080;11.896;2023-11-21T03:18:53;95664.00;;;7.50
33267;BMP180;19638;49.080;11.896;2023-11-21T03:22:56;95668.00;;;7.40
33267;BMP180;19638;49.080;11.896;2023-11-21T03:27:01;95662.00;;;7.30
33267;BMP180;19638;49.080;11.896;2023-11-21T03:31:06;95658.00;;;7.20
33267;BMP180;19638;49.080;11.896;2023-11-21T03:35:10;95667.00;;;7.20
33267;BMP180;19638;49.080;11.896;2023-11-21T03:39:13;95666.00;;;7.00
33267;BMP180;19638;49.080;11.896;2023-11-21T03:43:16;95662.00;;;6.90
33267;BMP180;19638;49.080;11.896;2023-11-21T03:47:21;95662.00;;;6.90
33267;BMP180;19638;49.080;11.896;2023-11-21T03:51:24;95672.00;;;6.90
33267;BMP180;19638;49.080;11.896;2023-11-21T03:55:27;95662.00;;;7.00
33267;BMP180;19638;49.080;11.896;2023-11-21T03:59:32;95665.00;;;7.00
33267;BMP180;19638;49.080;11.896;2023-11-21T04:03:37;95673.00;;;7.00
33267;BMP180;19638;49.080;11.896;2023-11-21T04:07:42;95680.00;;;7.00
33267;BMP180;19638;49.080;11.896;2023-11-21T04:11:45;95681.00;;;7.00
33267;BMP180;19638;49.080;11.896;2023-11-21T04:15:48;95678.00;;;7.10
33267;BMP180;19638;49.080;11.896;2023-11-21T04:19:53;95678.00;;;7.20
33267;BMP180;19638;49.080;11.896;2023-11-21T04:23:56;95679.00;;;7.20
33267;BMP180;19638;49.080;11.896;2023-11-21T04:27:59;95688.00;;;7.30
33267;BMP180;19638;49.080;11.896;2023-11-21T04:32:03;95687.00;;;7.20
33267;BMP180;19638;49.080;11.896;2023-11-21T04:36:08;95691.00;;;7.20
33267;BMP180;19638;49.080;11.896;2023-11-21T04:40:12;95695.00;;;7.30
33267;BMP180;19638;49.080;11.896;2023-11-21T04:44:15;95696.00;;;7.30
33267;BMP180;19638;49.080;11.896;2023-11-21T04:48:19;95696.00;;;7.40
33267;BMP180;19638;49.080;11.896;2023-11-21T04:52:23;95691.00;;;7.40
33267;BMP180;19638;49.080;11.896;2023-11-21T04:56:26;95698.00;;;7.50
33267;BMP180;19638;49.080;11.896;2023-11-21T05:00:29;95696.00;;;7.50
33267;BMP180;19638;49.080;11.896;2023-11-21T05:04:33;95689.00;;;7.50
33267;BMP180;19638;49.080;11.896;2023-11-21T05:08:37;95690.00;;;7.50
33267;BMP180;19638;49.080;11.896;2023-11-21T05:12:41;95687.00;;;7.50
33267;BMP180;19638;49.080;11.896;2023-11-21T05:16:44;95698.00;;;7.40
33267;BMP180;19638;49.080;11.896;2023-11-21T05:20:47;95696.00;;;7.40
33267;BMP180;19638;49.080;11.896;2023-11-21T05:24:52;95698.00;;;7.40
33267;BMP180;19638;49.080;11.896;2023-11-21T05:28:55;95698.00;;;7.30
33267;BMP180;19638;49.080;11.896;2023-11-21T05:32:58;95696.00;;;7.30
33267;BMP180;19638;49.080;11.896;2023-11-21T05:37:01;95693.00;;;7.30
33267;BMP180;19638;49.080;11.896;2023-11-21T05:41:08;95704.00;;;7.40
33267;BMP180;19638;49.080;11.896;2023-11-21T05:45:13;95701.00;;;7.40
33267;BMP180;19638;49.080;11.896;2023-11-21T05:49:16;95707.00;;;7.40
33267;BMP180;19638;49.080;11.896;2023-11-21T05:53:23;95704.00;;;7.40
33267;BMP180;19638;49.080;11.896;2023-11-21T05:57:28;95702.00;;;7.30
33267;BMP180;19638;49.080;11.896;2023-11-21T06:01:31;95711.00;;;7.30
33267;BMP180;19638;49.080;11.896;2023-11-21T06:05:34;95724.00;;;7.20
33267;BMP180;19638;49.080;11.896;2023-11-21T06:09:37;95726.00;;;7.20
33267;BMP180;19638;49.080;11.896;2023-11-21T06:13:42;95731.00;;;7.20
33267;BMP180;19638;49.080;11.896;2023-11-21T06:17:45;95730.00;;;7.20
33267;BMP180;19638;49.080;11.896;2023-11-21T06:21:51;95740.00;;;7.20
33267;BMP180;19638;49.080;11.896;2023-11-21T06:25:54;95750.00;;;7.20
33267;BMP180;19638;49.080;11.896;2023-11-21T06:29:58;95741.00;;;7.20
33267;BMP180;19638;49.080;11.896;2023-11-21T06:34:02;95748.00;;;7.20
33267;BMP180;19638;49.080;11.896;2023-11-21T06:38:05;95735.00;;;7.30
33267;BMP180;19638;49.080;11.896;2023-11-21T06:42:08;95747.00;;;7.30
33267;BMP180;19638;49.080;11.896;2023-11-21T06:46:13;95750.00;;;7.40
33267;BMP180;19638;49.080;11.896;2023-11-21T06:50:17;95752.00;;;7.40
33267;BMP180;19638;49.080;11.896;2023-11-21T06:54:20;95753.00;;;7.50
33267;BMP180;19638;49.080;11.896;2023-11-21T06:58:24;95762.00;;;7.60
33267;BMP180;19638;49.080;11.896;2023-11-21T07:02:29;95758.00;;;7.60
33267;BMP180;19638;49.080;11.896;2023-11-21T07:06:32;95763.00;;;7.70
33267;BMP180;19638;49.080;11.896;2023-11-21T07:10:35;95766.00;;;7.80
33267;BMP180;19638;49.080;11.896;2023-11-21T07:14:39;95767.00;;;7.80
33267;BMP180;19638;49.080;11.896;2023-11-21T07:18:46;95765.00;;;7.90
33267;BMP180;19638;49.080;11.896;2023-11-21T07:22:51;95768.00;;;7.90
33267;BMP180;19638;49.080;11.896;2023-11-21T07:26:54;95773.00;;;7.80
33267;BMP180;19638;49.080;11.896;2023-11-21T07:30:58;95775.00;;;7.80
33267;BMP180;19638;49.080;11.896;2023-11-21T07:35:03;95775.00;;;7.90
33267;BMP180;19638;49.080;11.896;2023-11-21T07:39:07;95781.00;;;8.00
33267;BMP180;19638;49.080;11.896;2023-11-21T07:43:10;95789.00;;;8.10
33267;BMP180;19638;49.080;11.896;2023-11-21T07:47:13;95795.00;;;8.10
33267;BMP180;19638;49.080;11.896;2023-11-21T07:51:18;95803.00;;;8.20
33267;BMP180;19638;49.080;11.896;2023-11-21T07:55:21;95794.00;;;8.30
33267;BMP180;19638;49.080;11.896;2023-11-21T07:59:25;95803.00;;;8.40
33267;BMP180;19638;49.080;11.896;2023-11-21T08:03:28;95806.00;;;8.50
33267;BMP180;19638;49.080;11.896;2023-11-21T08:07:33;95800.00;;;8.70
33267;BMP180;19638;49.080;11.896;2023-11-21T08:11:37;95800.00;;;8.80
33267;BMP180;19638;49.080;11.896;2023-11-21T08:15:41;95804.00;;;8.80
33267;BMP180;19638;49.080;11.896;2023-11-21T08:19:48;95814.00;;;8.80
33267;BMP180;19638;49.080;11.896;2023-11-21T08:23:54;95823.00;;;9.00
33267;BMP180;19638;49.080;11.896;2023-11-21T08:27:58;95824.00;;;9.10
33267;BMP180;19638;49.080;11.896;2023-11-21T08:32:02;95828.00;;;9.10
33267;BMP180;19638;49.080;11.896;2023-11-21T08:36:07;95830.00;;;9.20
33267;BMP180;19638;49.080;11.896;2023-11-21T08:40:12;95825.00;;;9.20
33267;BMP180;19638;49.080;11.896;2023-11-21T08:44:19;95827.00;;;9.30
33267;BMP180;19638;49.080;11.896;2023-11-21T08:48:23;95827.00;;;9.40
33267;BMP180;19638;49.080;11.896;2023-11-21T08:52:26;95837.00;;;9.60
33267;BMP180;19638;49.080;11.896;2023-11-21T08:56:30;95841.00;;;9.70
33267;BMP180;19638;49.080;11.896;2023-11-21T09:00:34;95846.00;;;9.80
33267;BMP180;19638;49.080;11.896;2023-11-21T09:04:38;95851.00;;;9.80
33267;BMP180;19638;49.080;11.896;2023-11-21T09:08:43;95848.00;;;9.80
33267;BMP180;19638;49.080;11.896;2023-11-21T09:12:47;95861.00;;;9.80
33267;BMP180;19638;49.080;11.896;2023-11-21T09:16:50;95861.00;;;9.70
33267;BMP180;19638;49.080;11.896;2023-11-21T09:20:54;95871.00;;;9.50
33267;BMP180;19638;49.080;11.896;2023-11-21T09:24:57;95864.00;;;9.50
33267;BMP180;19638;49.080;11.896;2023-11-21T09:29:02;95871.00;;;9.70
33267;BMP180;19638;49.080;11.896;2023-11-21T09:33:05;95866.00;;;9.90
33267;BMP180;19638;49.080;11.896;2023-11-21T09:37:12;95867.00;;;10.10
33267;BMP180;19638;49.080;11.896;2023-11-21T09:41:21;95873.00;;;10.30
33267;BMP180;19638;49.080;11.896;2023-11-21T09:45:28;95873.00;;;10.60
33267;BMP180;19638;49.080;11.896;2023-11-21T09:49:35;95876.00;;;10.70
33267;BMP180;19638;49.080;11.896;2023-11-21T09:53:42;95876.00;;;10.90
33267;BMP180;19638;49.080;11.896;2023-11-21T09:57:47;95863.00;;;10.90
33267;BMP180;19638;49.080;11.896;2023-11-21T10:01:53;95868.00;;;11.10
33267;BMP180;19638;49.080;11.896;2023-11-21T10:05:56;95873.00;;;11.10
33267;BMP180;19638;49.080;11.896;2023-11-21T10:10:01;95870.00;;;11.00
33267;BMP180;19638;49.080;11.896;2023-11-21T10:14:05;95867.00;;;10.80
33267;BMP180;19638;49.080;11.896;2023-11-21T10:18:10;95872.00;;;10.70
33267;BMP180;19638;49.080;11.896;2023-11-21T10:22:14;95870.00;;;10.60
33267;BMP180;19638;49.080;11.896;2023-11-21T10:26:17;95875.00;;;10.50
33267;BMP180;19638;49.080;11.896;2023-11-21T10:30:35;95876.00;;;10.40
33267;BMP180;19638;49.080;11.896;2023-11-21T10:34:41;95874.00;;;10.30
33267;BMP180;19638;49.080;11.896;2023-11-21T10:38:44;95886.00;;;10.40
33267;BMP180;19638;49.080;11.896;2023-11-21T10:42:52;95887.00;;;10.60
33267;BMP180;19638;49.080;11.896;2023-11-21T10:46:55;95876.00;;;10.80
33267;BMP180;19638;49.080;11.896;2023-11-21T10:51:06;95881.00;;;11.20
33267;BMP180;19638;49.080;11.896;2023-11-21T10:55:16;95888.00;;;11.60
33267;BMP180;19638;49.080;11.896;2023-11-21T10:59:21;95871.00;;;11.80
33267;BMP180;19638;49.080;11.896;2023-11-21T11:03:27;95876.00;;;12.00
33267;BMP180;19638;49.080;11.896;2023-11-21T11:07:33;95879.00;;;11.90
33267;BMP180;19638;49.080;11.896;2023-11-21T11:11:38;95870.00;;;11.80
33267;BMP180;19638;49.080;11.896;2023-11-21T11:15:43;95881.00;;;11.70
33267;BMP180;19638;49.080;11.896;2023-11-21T11:19:47;95871.00;;;11.60
33267;BMP180;19638;49.080;11.896;2023-11-21T11:24:04;95866.00;;;11.50
33267;BMP180;19638;49.080;11.896;2023-11-21T11:28:11;95868.00;;;11.50
33267;BMP180;19638;49.080;11.896;2023-11-21T11:32:24;95872.00;;;11.60
33267;BMP180;19638;49.080;11.896;2023-11-21T11:36:35;95868.00;;;11.60
33267;BMP180;19638;49.080;11.896;2023-11-21T11:40:41;95862.00;;;11.70
33267;BMP180;19638;49.080;11.896;2023-11-21T11:44:49;95864.00;;;11.70
33267;BMP180;19638;49.080;11.896;2023-11-21T11:49:02;95872.00;;;11.60
33267;BMP180;19638;49.080;11.896;2023-11-21T11:53:13;95867.00;;;11.50
33267;BMP180;19638;49.080;11.896;2023-11-21T11:57:17;95875.00;;;11.20
33267;BMP180;19638;49.080;11.896;2023-11-21T12:01:24;95872.00;;;10.80
33267;BMP180;19638;49.080;11.896;2023-11-21T12:05:27;95879.00;;;10.50
33267;BMP180;19638;49.080;11.896;2023-11-21T12:09:31;95879.00;;;10.20
33267;BMP180;19638;49.080;11.896;2023-11-21T12:13:36;95873.00;;;10.10
33267;BMP180;19638;49.080;11.896;2023-11-21T12:17:40;95876.00;;;10.00
33267;BMP180;19638;49.080;11.896;2023-11-21T12:21:45;95873.00;;;10.00
33267;BMP180;19638;49.080;11.896;2023-11-21T12:25:50;95881.00;;;10.00
33267;BMP180;19638;49.080;11.896;2023-11-21T12:29:55;95883.00;;;10.00
33267;BMP180;19638;49.080;11.896;2023-11-21T12:33:59;95885.00;;;10.00
33267;BMP180;19638;49.080;11.896;2023-11-21T12:38:04;95891.00;;;10.00
33267;BMP180;19638;49.080;11.896;2023-11-21T12:42:07;95903.00;;;10.00
33267;BMP180;19638;49.080;11.896;2023-11-21T12:46:14;95896.00;;;10.00
33267;BMP180;19638;49.080;11.896;2023-11-21T12:50:19;95892.00;;;10.10
33267;BMP180;19638;49.080;11.896;2023-11-21T12:54:25;95891.00;;;10.10
33267;BMP180;19638;49.080;11.896;2023-11-21T12:58:28;95895.00;;;10.20
33267;BMP180;19638;49.080;11.896;2023-11-21T13:02:33;95895.00;;;10.30
33267;BMP180;19638;49.080;11.896;2023-11-21T13:06:39;95896.00;;;10.50
33267;BMP180;19638;49.080;11.896;2023-11-21T13:10:44;95906.00;;;10.60
33267;BMP180;19638;49.080;11.896;2023-11-21T13:14:48;95914.00;;;10.60
33267;BMP180;19638;49.080;11.896;2023-11-21T13:18:53;95913.00;;;10.50
33267;BMP180;19638;49.080;11.896;2023-11-21T13:22:56;95916.00;;;10.50
33267;BMP180;19638;49.080;11.896;2023-11-21T13:27:01;95916.00;;;10.40
33267;BMP180;19638;49.080;11.896;2023-11-21T13:31:05;95916.00;;;10.30
33267;BMP180;19638;49.080;11.896;2023-11-21T13:35:24;95915.00;;;10.30
33267;BMP180;19638;49.080;11.896;2023-11-21T13:39:34;95917.00;;;10.30
33267;BMP180;19638;49.080;11.896;2023-11-21T13:43:38;95922.00;;;10.30
33267;BMP180;19638;49.080;11.896;2023-11-21T13:47:41;95935.00;;;10.40
33267;BMP180;19638;49.080;11.896;2023-11-21T13:51:48;95935.00;;;10.40
33267;BMP180;19638;49.080;11.896;2023-11-21T13:55:55;95944.00;;;10.30
33267;BMP180;19638;49.080;11.896;2023-11-21T13:59:59;95948.00;;;10.40
33267;BMP180;19638;49.080;11.896;2023-11-21T14:04:03;95947.00;;;10.50
33267;BMP180;19638;49.080;11.896;2023-11-21T14:08:22;95952.00;;;10.60
33267;BMP180;19638;49.080;11.896;2023-11-21T14:12:30;95958.00;;;10.60
33267;BMP180;19638;49.080;11.896;2023-11-21T14:16:40;95958.00;;;10.60
33267;BMP180;19638;49.080;11.896;2023-11-21T14:20:44;95954.00;;;10.50
33267;BMP180;19638;49.080;11.896;2023-11-21T14:24:48;95960.00;;;10.50
33267;BMP180;19638;49.080;11.896;2023-11-21T14:28:53;95963.00;;;10.50
33267;BMP180;19638;49.080;11.896;2023-11-21T14:32:58;95959.00;;;10.50
33267;BMP180;19638;49.080;11.896;2023-11-21T14:37:03;95961.00;;;10.40
33267;BMP180;19638;49.080;11.896;2023-11-21T14:41:07;95965.00;;;10.30
33267;BMP180;19638;49.080;11.896;2023-11-21T14:45:13;95963.00;;;10.20
33267;BMP180;19638;49.080;11.896;2023-11-21T14:49:21;95966.00;;;10.20
33267;BMP180;19638;49.080;11.896;2023-11-21T14:53:25;95974.00;;;10.10
33267;BMP180;19638;49.080;11.896;2023-11-21T14:57:46;95970.00;;;10.00
33267;BMP180;19638;49.080;11.896;2023-11-21T15:01:53;95971.00;;;9.90
33267;BMP180;19638;49.080;11.896;2023-11-21T15:05:57;95977.00;;;9.90
33267;BMP180;19638;49.080;11.896;2023-11-21T15:10:01;95985.00;;;9.80
33267;BMP180;19638;49.080;11.896;2023-11-21T15:14:06;95983.00;;;9.70
33267;BMP180;19638;49.080;11.896;2023-11-21T15:18:11;95992.00;;;9.60
33267;BMP180;19638;49.080;11.896;2023-11-21T15:22:15;95991.00;;;9.60
33267;BMP180;19638;49.080;11.896;2023-11-21T15:26:18;95989.00;;;9.50
33267;BMP180;19638;49.080;11.896;2023-11-21T15:30:22;96008.00;;;9.50
33267;BMP180;19638;49.080;11.896;2023-11-21T15:34:27;96001.00;;;9.40
33267;BMP180;19638;49.080;11.896;2023-11-21T15:38:31;95995.00;;;9.30
33267;BMP180;19638;49.080;11.896;2023-11-21T15:42:34;96005.00;;;9.40
33267;BMP180;19638;49.080;11.896;2023-11-21T15:46:40;96013.00;;;9.40
33267;BMP180;19638;49.080;11.896;2023-11-21T15:50:44;96016.00;;;9.30
33267;BMP180;19638;49.080;11.896;2023-11-21T15:54:48;96011.00;;;9.30
33267;BMP180;19638;49.080;11.896;2023-11-21T15:58:51;96019.00;;;9.30
33267;BMP180;19638;49.080;11.896;2023-11-21T16:02:56;96022.00;;;9.10
33267;BMP180;19638;49.080;11.896;2023-11-21T16:07:00;96021.00;;;9.00
33267;BMP180;19638;49.080;11.896;2023-11-21T16:11:04;96028.00;;;8.90
33267;BMP180;19638;49.080;11.896;2023-11-21T16:15:07;96036.00;;;8.70
33267;BMP180;19638;49.080;11.896;2023-11-21T16:19:12;96027.00;;;8.50
33267;BMP180;19638;49.080;11.896;2023-11-21T16:23:15;96036.00;;;8.30
33267;BMP180;19638;49.080;11.896;2023-11-21T16:27:19;96044.00;;;8.10
33267;BMP180;19638;49.080;11.896;2023-11-21T16:31:22;96045.00;;;8.00
33267;BMP180;19638;49.080;11.896;2023-11-21T16:35:27;96047.00;;;7.90
33267;BMP180;19638;49.080;11.896;2023-11-21T16:39:30;96053.00;;;7.80
33267;BMP180;19638;49.080;11.896;2023-11-21T16:43:33;96055.00;;;7.70
33267;BMP180;19638;49.080;11.896;2023-11-21T16:47:37;96061.00;;;7.60
33267;BMP180;19638;49.080;11.896;2023-11-21T16:51:43;96060.00;;;7.40
33267;BMP180;19638;49.080;11.896;2023-11-21T16:55:46;96068.00;;;7.30
33267;BMP180;19638;49.080;11.896;2023-11-21T16:59:51;96075.00;;;7.30
33267;BMP180;19638;49.080;11.896;2023-11-21T17:03:54;96081.00;;;7.30
33267;BMP180;19638;49.080;11.896;2023-11-21T17:08:01;96088.00;;;7.40
33267;BMP180;19638;49.080;11.896;2023-11-21T17:12:04;96084.00;;;7.60
33267;BMP180;19638;49.080;11.896;2023-11-21T17:16:08;96102.00;;;7.60
33267;BMP180;19638;49.080;11.896;2023-11-21T17:20:11;96101.00;;;7.70
33267;BMP180;19638;49.080;11.896;2023-11-21T17:24:16;96106.00;;;7.80
33267;BMP180;19638;49.080;11.896;2023-11-21T17:28:20;96114.00;;;7.90
33267;BMP180;19638;49.080;11.896;2023-11-21T17:32:23;96110.00;;;8.00
33267;BMP180;19638;49.080;11.896;2023-11-21T17:36:26;96113.00;;;8.10
33267;BMP180;19638;49.080;11.896;2023-11-21T17:40:31;96123.00;;;8.10
33267;BMP180;19638;49.080;11.896;2023-11-21T17:44:34;96120.00;;;8.20
33267;BMP180;19638;49.080;11.896;2023-11-21T17:48:37;96120.00;;;8.20
33267;BMP180;19638;49.080;11.896;2023-11-21T17:52:42;96124.00;;;8.20
33267;BMP180;19638;49.080;11.896;2023-11-21T17:56:47;96127.00;;;8.20
33267;BMP180;19638;49.080;11.896;2023-11-21T18:00:51;96124.00;;;8.20
33267;BMP180;19638;49.080;11.896;2023-11-21T18:04:54;96128.00;;;8.10
33267;BMP180;19638;49.080;11.896;2023-11-21T18:08:58;96122.00;;;8.10
33267;BMP180;19638;49.080;11.896;2023-11-21T18:13:03;96130.00;;;8.00
33267;BMP180;19638;49.080;11.896;2023-11-21T18:17:07;96139.00;;;8.00
33267;BMP180;19638;49.080;11.896;2023-11-21T18:21:10;96137.00;;;8.00
33267;BMP180;19638;49.080;11.896;2023-11-21T18:25:13;96143.00;;;7.90
33267;BMP180;19638;49.080;11.896;2023-11-21T18:29:20;96144.00;;;7.90
33267;BMP180;19638;49.080;11.896;2023-11-21T18:33:23;96152.00;;;8.00
33267;BMP180;19638;49.080;11.896;2023-11-21T18:37:27;96151.00;;;8.00
33267;BMP180;19638;49.080;11.896;2023-11-21T18:41:30;96166.00;;;8.10
33267;BMP180;19638;49.080;11.896;2023-11-21T18:45:35;96152.00;;;8.10
33267;BMP180;19638;49.080;11.896;2023-11-21T18:49:38;96151.00;;;8.20
33267;BMP180;19638;49.080;11.896;2023-11-21T18:53:42;96160.00;;;8.20
33267;BMP180;19638;49.080;11.896;2023-11-21T18:57:45;96172.00;;;8.20
33267;BMP180;19638;49.080;11.896;2023-11-21T19:01:50;96181.00;;;8.20
33267;BMP180;19638;49.080;11.896;2023-11-21T19:05:53;96186.00;;;8.20
33267;BMP180;19638;49.080;11.896;2023-11-21T19:09:56;96180.00;;;8.20
33267;BMP180;19638;49.080;11.896;2023-11-21T19:13:59;96183.00;;;8.20
33267;BMP180;19638;49.080;11.896;2023-11-21T19:18:05;96195.00;;;8.20
33267;BMP180;19638;49.080;11.896;2023-11-21T19:22:08;96200.00;;;8.10
33267;BMP180;19638;49.080;11.896;2023-11-21T19:26:11;96212.00;;;8.10
33267;BMP180;19638;49.080;11.896;2023-11-21T19:30:16;96211.00;;;8.10
33267;BMP180;19638;49.080;11.896;2023-11-21T19:34:21;96221.00;;;8.10
33267;BMP180;19638;49.080;11.896;2023-11-21T19:38:24;96238.00;;;8.10
33267;BMP180;19638;49.080;11.896;2023-11-21T19:42:27;96245.00;;;8.20
33267;BMP180;19638;49.080;11.896;2023-11-21T19:46:31;96247.00;;;8.20
33267;BMP180;19638;49.080;11.896;2023-11-21T19:50:36;96247.00;;;8.20
33267;BMP180;19638;49.080;11.896;2023-11-21T19:54:39;96253.00;;;8.20
33267;BMP180;19638;49.080;11.896;2023-11-21T19:58:43;96248.00;;;8.20
33267;BMP180;19638;49.080;11.896;2023-11-21T20:02:46;96254.00;;;8.20
33267;BMP180;19638;49.080;11.896;2023-11-21T20:06:50;96253.00;;;8.10
33267;BMP180;19638;49.080;11.896;2023-11-21T20:10:58;96257.00;;;8.10
33267;BMP180;19638;49.080;11.896;2023-11-21T20:15:01;96281.00;;;8.10
33267;BMP180;19638;49.080;11.896;2023-11-21T20:19:05;96282.00;;;8.10
33267;BMP180;19638;49.080;11.896;2023-11-21T20:23:10;96275.00;;;8.10
33267;BMP180;19638;49.080;11.896;2023-11-21T20:27:14;96281.00;;;8.10
33267;BMP180;19638;49.080;11.896;2023-11-21T20:31:19;96283.00;;;8.10
33267;BMP180;19638;49.080;11.896;2023-11-21T20:35:22;96282.00;;;8.00
33267;BMP180;19638;49.080;11.896;2023-11-21T20:39:27;96286.00;;;8.00
33267;BMP180;19638;49.080;11.896;2023-11-21T20:43:30;96297.00;;;8.10
33267;BMP180;19638;49.080;11.896;2023-11-21T20:47:33;96304.00;;;8.10
33267;BMP180;19638;49.080;11.896;2023-11-21T20:51:37;96302.00;;;8.00
33267;BMP180;19638;49.080;11.896;2023-11-21T20:55:41;96300.00;;;8.00
33267;BMP180;19638;49.080;11.896;2023-11-21T20:59:46;96312.00;;;8.00
33267;BMP180;19638;49.080;11.896;2023-11-21T21:03:50;96313.00;;;8.00
33267;BMP180;19638;49.080;11.896;2023-11-21T21:07:53;96314.00;;;7.90
33267;BMP180;19638;49.080;11.896;2023-11-21T21:11:58;96321.00;;;7.90
33267;BMP180;19638;49.080;11.896;2023-11-21T21:16:02;96327.00;;;7.90
33267;BMP180;19638;49.080;11.896;2023-11-21T21:20:06;96328.00;;;7.80
33267;BMP180;19638;49.080;11.896;2023-11-21T21:24:09;96332.00;;;7.80
33267;BMP180;19638;49.080;11.896;2023-11-21T21:28:14;96336.00;;;7.70
33267;BMP180;19638;49.080;11.896;2023-11-21T21:32:17;96351.00;;;7.60
33267;BMP180;19638;49.080;11.896;2023-11-21T21:36:20;96352.00;;;7.50
33267;BMP180;19638;49.080;11.896;2023-11-21T21:40:24;96354.00;;;7.40
33267;BMP180;19638;49.080;11.896;2023-11-21T21:44:29;96356.00;;;7.30
33267;BMP180;19638;49.080;11.896;2023-11-21T21:48:35;96358.00;;;7.30
33267;BMP180;19638;49.080;11.896;2023-11-21T21:52:38;96366.00;;;7.20
33267;BMP180;19638;49.080;11.896;2023-11-21T21:56:43;96373.00;;;7.20
33267;BMP180;19638;49.080;11.896;2023-11-21T22:00:48;96381.00;;;7.10
33267;BMP180;19638;49.080;11.896;2023-11-21T22:04:51;96394.00;;;7.00
33267;BMP180;19638;49.080;11.896;2023-11-21T22:08:54;96409.00;;;6.80
33267;BMP180;19638;49.080;11.896;2023-11-21T22:12:57;96404.00;;;6.50
33267;BMP180;19638;49.080;11.896;2023-11-21T22:17:02;96407.00;;;6.20
33267;BMP180;19638;49.080;11.896;2023-11-21T22:21:05;96409.00;;;6.00
33267;BMP180;19638;49.080;11.896;2023-11-21T22:25:09;96403.00;;;5.90
33267;BMP180;19638;49.080;11.896;2023-11-21T22:29:12;96397.00;;;5.80
33267;BMP180;19638;49.080;11.896;2023-11-21T22:33:17;96403.00;;;5.70
33267;BMP180;19638;49.080;11.896;2023-11-21T22:37:21;96407.00;;;5.60
33267;BMP180;19638;49.080;11.896;2023-11-21T22:41:25;96410.00;;;5.40
33267;BMP180;19638;49.080;11.896;2023-11-21T22:45:28;96407.00;;;5.30
33267;BMP180;19638;49.080;11.896;2023-11-21T22:49:33;96409.00;;;5.10
33267;BMP180;19638;49.080;11.896;2023-11-21T22:53:37;96419.00;;;5.00
33267;BMP180;19638;49.080;11.896;2023-11-21T22:57:41;96416.00;;;5.00
33267;BMP180;19638;49.080;11.896;2023-11-21T23:01:46;96423.00;;;5.00
33267;BMP180;19638;49.080;11.896;2023-11-21T23:05:52;96420.00;;;5.00
33267;BMP180;19638;49.080;11.896;2023-11-21T23:09:55;96426.00;;;5.00
33267;BMP180;19638;49.080;11.896;2023-11-21T23:13:58;96417.00;;;5.00
33267;BMP180;19638;49.080;11.896;2023-11-21T23:18:01;96419.00;;;5.00
33267;BMP180;19638;49.080;11.896;2023-11-21T23:22:07;96429.00;;;5.00
33267;BMP180;19638;49.080;11.896;2023-11-21T23:26:14;96424.00;;;5.00